Chalan Pago, Guam
Current Conditions -  °F | °C
As of 9:13 AM on Sunday 26 Oct 2014 (Local Time) from PGUM Reporting Station
Light Rain Light Rain  
Wind Chill: 82°   Ceiling: 2500
Heat Index: 92°   Visibility: 8mi
Dew Point: 79°   Wind: 7mph
Humidity: 89%   Direction: 90°E
Pressure: 29.93"   Gusts: NA
Location:  13.4744°N, 144.7478°E
Report Text: PGUM 252313Z 09006KT 8SM -RA SCT015 SCT020 BKN025 28/26 A2993 RMK AO2 RAB09 P0000 $
Loading
Personal Weather Stations






























Interactive Weather Map
Tropical Storm Tracking
New forecast layout! Learn more

10-Day Weather Forecast

Advertisements
Track Severe Weather on mobile